Terminal Aerodrome Forecast
Issued by NWS Melbourne, FL

Current Version | Previous Version | Text Only | Print | Product List | Glossary On
Versions: 1 2 3 4 5 6 7 8 9 10 11 12 13 14 15
000
FTUS42 KMLB 281125
TAFVRB
TAF
KVRB 281125Z 2812/2912 15005KT P6SM SCT015
     FM281400 14011KT P6SM SCT025
     FM281700 12014G22KT P6SM SKC
     FM290100 12011KT P6SM FEW035=

USA.gov is the U.S. government's official web portal to all federal, state and local government web resources and services.